createdAt,value
2023-11-14T00:00:29.643Z,90.62
2023-11-14T00:02:56.056Z,89.64
2023-11-14T00:05:22.560Z,87.96
2023-11-14T00:07:49.099Z,88.80
2023-11-14T00:10:17.306Z,89.12
2023-11-14T00:12:43.711Z,89.36
2023-11-14T00:15:10.263Z,89.30
2023-11-14T00:17:36.819Z,89.47
2023-11-14T00:20:03.620Z,88.44
2023-11-14T00:22:30.132Z,87.70
2023-11-14T00:24:56.507Z,88.24
2023-11-14T00:27:22.956Z,88.68
2023-11-14T00:29:49.293Z,88.17
2023-11-14T00:32:15.710Z,88.13
2023-11-14T00:34:42.268Z,87.52
2023-11-14T00:37:08.628Z,87.21
2023-11-14T00:39:35.031Z,86.72
2023-11-14T00:42:01.393Z,87.80
2023-11-14T00:44:27.847Z,86.57
2023-11-14T00:46:54.428Z,85.16
2023-11-14T00:49:20.805Z,84.16
2023-11-14T00:51:47.155Z,83.41
2023-11-14T00:54:13.639Z,81.56
2023-11-14T00:56:39.989Z,81.51
2023-11-14T00:59:06.371Z,81.34
2023-11-14T01:01:33.012Z,81.15
2023-11-14T01:03:59.471Z,81.27
2023-11-14T01:06:25.866Z,81.13
2023-11-14T01:08:54.201Z,80.06
2023-11-14T01:11:20.825Z,81.29
2023-11-14T01:13:47.307Z,81.11
2023-11-14T01:16:16.031Z,82.20
2023-11-14T01:18:42.402Z,82.42
2023-11-14T01:21:09.180Z,82.21
2023-11-14T01:23:35.630Z,82.99
2023-11-14T01:26:03.077Z,83.04
2023-11-14T01:28:29.599Z,83.95
2023-11-14T01:30:56.030Z,84.36
2023-11-14T01:33:22.512Z,84.57
2023-11-14T01:35:48.989Z,85.68
2023-11-14T01:38:15.332Z,85.76
2023-11-14T01:40:52.512Z,86.34
2023-11-14T01:43:19.053Z,86.24
2023-11-14T01:45:45.457Z,87.87
2023-11-14T01:48:12.715Z,89.12
2023-11-14T01:50:39.539Z,88.72
2023-11-14T01:53:06.070Z,89.48
2023-11-14T01:55:32.659Z,88.78
2023-11-14T01:57:59.112Z,88.67
2023-11-14T02:00:25.992Z,87.21
2023-11-14T02:02:53.369Z,86.41
2023-11-14T02:05:20.533Z,86.77
2023-11-14T02:07:47.757Z,85.72
2023-11-14T02:10:14.169Z,86.10
2023-11-14T02:12:40.595Z,85.41
2023-11-14T02:15:07.740Z,85.38
2023-11-14T02:17:34.271Z,85.45
2023-11-14T02:20:00.807Z,84.96
2023-11-14T02:22:27.551Z,84.80
2023-11-14T02:24:54.315Z,85.02
2023-11-14T02:27:20.870Z,84.93
2023-11-14T02:29:48.660Z,85.20
2023-11-14T02:32:15.124Z,85.88
2023-11-14T02:34:41.482Z,85.66
2023-11-14T02:37:07.976Z,86.10
2023-11-14T02:39:34.386Z,85.91
2023-11-14T02:42:00.938Z,86.54
2023-11-14T02:44:27.469Z,86.96
2023-11-14T02:46:54.610Z,87.53
2023-11-14T02:49:42.758Z,87.22
2023-11-14T02:52:09.118Z,87.27
2023-11-14T02:54:35.532Z,88.58
2023-11-14T02:57:01.967Z,88.86
2023-11-14T02:59:28.305Z,89.07
2023-11-14T03:01:54.715Z,89.08
2023-11-14T03:04:21.060Z,89.98
2023-11-14T03:06:47.519Z,90.13
2023-11-14T03:09:13.875Z,90.83
2023-11-14T03:11:40.349Z,91.42
2023-11-14T03:14:06.753Z,91.30
2023-11-14T03:16:33.224Z,91.09
2023-11-14T03:18:59.654Z,92.05
2023-11-14T03:21:26.022Z,92.15
2023-11-14T03:23:52.381Z,92.41
2023-11-14T03:26:18.723Z,91.83
2023-11-14T03:28:45.155Z,91.35
2023-11-14T03:31:11.547Z,90.24
2023-11-14T03:33:38.341Z,90.52
2023-11-14T03:36:05.299Z,89.44
2023-11-14T03:38:31.713Z,88.21
2023-11-14T03:40:58.076Z,88.30
2023-11-14T03:43:24.583Z,87.51
2023-11-14T03:45:50.968Z,87.18
2023-11-14T03:48:17.359Z,85.12
2023-11-14T03:50:43.693Z,84.89
2023-11-14T03:53:10.144Z,84.10
2023-11-14T03:55:36.546Z,84.20
2023-11-14T03:58:02.922Z,84.16
2023-11-14T04:00:29.393Z,83.57
2023-11-14T04:02:55.893Z,84.03
2023-11-14T04:05:22.315Z,82.35
2023-11-14T04:07:48.823Z,81.48
2023-11-14T04:10:15.314Z,81.82
2023-11-14T04:12:41.787Z,80.47
2023-11-14T04:15:08.656Z,81.18
2023-11-14T04:17:35.182Z,80.45
2023-11-14T04:20:01.704Z,81.72
2023-11-14T04:22:28.090Z,82.11
2023-11-14T04:24:54.513Z,80.87
2023-11-14T04:27:20.964Z,81.83
2023-11-14T04:29:47.466Z,81.25
2023-11-14T04:32:14.003Z,80.83
2023-11-14T04:34:40.379Z,81.59
2023-11-14T04:37:06.711Z,82.02
2023-11-14T04:39:33.333Z,82.17
2023-11-14T04:41:59.836Z,82.67
2023-11-14T04:44:26.329Z,82.67
2023-11-14T04:46:52.854Z,82.36
2023-11-14T04:49:19.298Z,82.95
2023-11-14T04:51:45.629Z,82.74
2023-11-14T04:54:12.056Z,82.76
2023-11-14T04:56:38.401Z,82.37
2023-11-14T04:59:04.968Z,82.70
2023-11-14T05:01:31.425Z,82.58
2023-11-14T05:03:57.879Z,83.17
2023-11-14T05:06:24.240Z,82.80
2023-11-14T05:08:50.714Z,83.33
2023-11-14T05:11:17.208Z,83.25
2023-11-14T05:13:44.380Z,82.85
2023-11-14T05:16:19.206Z,83.33
2023-11-14T05:18:49.027Z,83.28
2023-11-14T05:21:15.391Z,83.41
2023-11-14T05:23:41.725Z,83.13
2023-11-14T05:26:08.484Z,82.91
2023-11-14T05:28:38.152Z,82.57
2023-11-14T05:31:04.558Z,82.67
2023-11-14T05:33:31.058Z,81.90
2023-11-14T05:35:57.426Z,82.39
2023-11-14T05:38:23.867Z,82.24
2023-11-14T05:40:50.381Z,82.12
2023-11-14T05:43:17.580Z,82.60
2023-11-14T05:45:44.326Z,82.43
2023-11-14T05:48:10.812Z,82.20
2023-11-14T05:50:38.333Z,83.07
2023-11-14T05:53:04.705Z,82.89
2023-11-14T05:55:31.063Z,82.31
2023-11-14T05:58:01.032Z,82.84
2023-11-14T06:00:27.388Z,82.99
2023-11-14T06:02:54.967Z,82.86
2023-11-14T06:05:21.283Z,83.05
2023-11-14T06:07:47.728Z,83.18
2023-11-14T06:10:14.063Z,82.46
2023-11-14T06:12:40.408Z,81.75
2023-11-14T06:15:08.052Z,81.82
2023-11-14T06:17:34.500Z,82.55
2023-11-14T06:20:01.028Z,82.50
2023-11-14T06:22:27.373Z,81.77
2023-11-14T06:24:54.082Z,82.48
2023-11-14T06:27:20.428Z,81.66
2023-11-14T06:29:47.255Z,82.73
2023-11-14T06:32:13.563Z,82.16
2023-11-14T06:34:40.277Z,82.08
2023-11-14T06:37:06.739Z,82.78
2023-11-14T06:39:33.150Z,82.67
2023-11-14T06:41:59.494Z,82.75
2023-11-14T06:44:25.810Z,82.00
2023-11-14T06:46:53.505Z,81.91
2023-11-14T06:49:20.144Z,82.76
2023-11-14T06:51:46.624Z,82.27
2023-11-14T06:54:12.968Z,82.39
2023-11-14T06:56:39.318Z,83.04
2023-11-14T06:59:05.820Z,82.27
2023-11-14T07:01:32.191Z,82.80
2023-11-14T07:04:00.294Z,82.91
2023-11-14T07:06:26.736Z,82.77
2023-11-14T07:08:53.897Z,81.67
2023-11-14T07:11:20.447Z,81.90
2023-11-14T07:13:46.804Z,81.73
2023-11-14T07:16:13.655Z,81.82
2023-11-14T07:18:40.930Z,80.49
2023-11-14T07:21:07.845Z,80.71
2023-11-14T07:23:34.181Z,80.28
2023-11-14T07:26:00.944Z,80.80
2023-11-14T07:28:27.418Z,80.61
2023-11-14T07:30:53.902Z,81.05
2023-11-14T07:33:20.247Z,80.19
2023-11-14T07:35:46.643Z,80.32
2023-11-14T07:38:13.138Z,78.84
2023-11-14T07:40:39.600Z,79.82
2023-11-14T07:43:05.965Z,79.29
2023-11-14T07:45:32.924Z,78.90
2023-11-14T07:47:59.811Z,78.69
2023-11-14T07:50:26.734Z,79.72
2023-11-14T07:52:53.134Z,77.97
2023-11-14T07:55:20.030Z,78.30
2023-11-14T07:57:46.380Z,78.84
2023-11-14T08:00:14.921Z,78.36
2023-11-14T08:02:42.710Z,78.28
2023-11-14T08:05:09.871Z,78.08
2023-11-14T08:07:36.619Z,77.94
2023-11-14T08:10:03.124Z,78.08
2023-11-14T08:12:29.472Z,76.79
2023-11-14T08:14:55.862Z,76.73
2023-11-14T08:17:22.246Z,75.73
2023-11-14T08:19:48.714Z,75.27
2023-11-14T08:22:15.114Z,74.99
2023-11-14T08:24:41.465Z,75.43
2023-11-14T08:27:08.665Z,75.12
2023-11-14T08:29:37.888Z,75.98
2023-11-14T08:32:04.583Z,74.72
2023-11-14T08:34:31.316Z,74.53
2023-11-14T08:36:57.704Z,74.88
2023-11-14T08:39:26.699Z,75.55
2023-11-14T08:41:54.003Z,74.42
2023-11-14T08:44:20.394Z,74.33
2023-11-14T08:46:46.840Z,74.34
2023-11-14T08:49:13.429Z,74.47
2023-11-14T08:51:39.920Z,74.70
2023-11-14T08:54:06.532Z,74.64
2023-11-14T08:56:32.910Z,74.21
2023-11-14T08:58:59.296Z,74.41
2023-11-14T09:01:25.753Z,73.47
2023-11-14T09:03:52.564Z,73.85
2023-11-14T09:06:18.911Z,72.89
2023-11-14T09:08:45.267Z,74.06
2023-11-14T09:11:12.648Z,74.54
2023-11-14T09:13:39.096Z,75.28
2023-11-14T09:16:06.440Z,74.86
2023-11-14T09:18:32.884Z,73.25
2023-11-14T09:20:59.315Z,73.49
2023-11-14T09:23:26.154Z,73.55
2023-11-14T09:25:52.521Z,74.31
2023-11-14T09:28:21.255Z,73.32
2023-11-14T09:30:48.520Z,72.42
2023-11-14T09:33:14.894Z,72.20
2023-11-14T09:35:41.633Z,72.90
2023-11-14T09:38:08.895Z,72.08
2023-11-14T09:40:35.400Z,71.22
2023-11-14T09:43:02.275Z,72.00
2023-11-14T09:45:28.786Z,71.72
2023-11-14T09:47:55.517Z,71.34
2023-11-14T09:50:23.078Z,71.70
2023-11-14T09:52:53.072Z,71.36
2023-11-14T09:55:19.551Z,70.17
2023-11-14T10:00:14.751Z,69.20
2023-11-14T10:02:41.331Z,70.11
2023-11-14T10:05:14.573Z,69.27
2023-11-14T10:07:44.141Z,69.45
2023-11-14T10:10:14.820Z,68.20
2023-11-14T10:12:41.370Z,69.00
2023-11-14T10:15:10.369Z,68.58
2023-11-14T10:17:55.178Z,67.86
2023-11-14T10:20:26.299Z,67.58
2023-11-14T10:23:04.124Z,67.49
2023-11-14T10:25:34.247Z,68.46
2023-11-14T10:28:05.878Z,67.47
2023-11-14T10:30:45.281Z,67.57
2023-11-14T10:33:13.324Z,68.19
2023-11-14T10:35:42.709Z,68.33
2023-11-14T10:38:23.841Z,67.20
2023-11-14T10:40:53.520Z,67.19
2023-11-14T10:43:26.744Z,67.81
2023-11-14T10:45:54.093Z,68.55
2023-11-14T10:48:25.066Z,68.32
2023-11-14T10:50:52.431Z,68.93
2023-11-14T10:53:19.391Z,68.64
2023-11-14T10:55:50.790Z,68.83
2023-11-14T10:58:19.051Z,69.17
2023-11-14T11:00:45.509Z,69.23
2023-11-14T11:03:14.877Z,69.21
2023-11-14T11:05:42.124Z,70.02
2023-11-14T11:08:08.578Z,69.82
2023-11-14T11:10:36.425Z,68.91
2023-11-14T11:13:15.224Z,69.65
2023-11-14T11:15:47.146Z,69.22
2023-11-14T11:18:14.327Z,69.64
2023-11-14T11:20:41.128Z,69.08
2023-11-14T11:23:10.301Z,69.50
2023-11-14T11:25:38.334Z,69.61
2023-11-14T11:28:19.762Z,69.05
2023-11-14T11:31:11.832Z,68.85
2023-11-14T11:33:39.906Z,69.39
2023-11-14T11:36:21.449Z,69.05
2023-11-14T11:38:58.807Z,68.20
2023-11-14T11:41:29.974Z,68.51
2023-11-14T11:44:12.640Z,68.10
2023-11-14T11:46:41.329Z,68.69
2023-11-14T11:49:10.656Z,69.08
2023-11-14T11:51:39.073Z,69.45
2023-11-14T11:54:28.305Z,67.48
2023-11-14T11:57:06.776Z,68.40
2023-11-14T11:59:45.130Z,67.90
2023-11-14T12:02:15.748Z,67.22
2023-11-14T12:04:42.317Z,66.71
2023-11-14T12:07:09.123Z,67.24
2023-11-14T12:09:38.963Z,65.26
2023-11-14T12:12:05.742Z,65.08
2023-11-14T12:14:32.665Z,65.08
2023-11-14T12:16:59.527Z,64.58
2023-11-14T12:19:26.833Z,63.24
2023-11-14T12:21:55.357Z,64.03
2023-11-14T12:24:21.769Z,63.84
2023-11-14T12:26:48.222Z,62.04
2023-11-14T12:29:15.996Z,63.00
2023-11-14T12:31:53.426Z,60.97
2023-11-14T12:34:29.963Z,60.69
2023-11-14T12:37:11.329Z,62.30
2023-11-14T12:39:38.379Z,62.48
2023-11-14T12:42:05.279Z,60.64
2023-11-14T12:44:34.316Z,61.37
2023-11-14T12:47:00.780Z,62.17
2023-11-14T12:49:27.186Z,61.58
2023-11-14T12:51:54.465Z,61.52
2023-11-14T12:54:24.871Z,62.45
2023-11-14T12:56:53.063Z,61.86
2023-11-14T12:59:20.277Z,61.79
2023-11-14T13:01:49.230Z,62.28
2023-11-14T13:04:15.969Z,62.15
2023-11-14T13:06:47.238Z,61.77
2023-11-14T13:09:16.272Z,62.32
2023-11-14T13:11:43.257Z,61.72
2023-11-14T13:14:10.510Z,62.31
2023-11-14T13:16:36.987Z,62.35
2023-11-14T13:19:03.965Z,61.54
2023-11-14T13:21:30.541Z,62.58
2023-11-14T13:23:57.342Z,62.44
2023-11-14T13:26:23.887Z,62.80
2023-11-14T13:28:50.719Z,62.27
2023-11-14T13:31:17.987Z,62.78
2023-11-14T13:33:45.092Z,61.58
2023-11-14T13:36:11.488Z,61.52
2023-11-14T13:38:38.425Z,62.41
2023-11-14T13:41:16.103Z,62.03
2023-11-14T13:43:43.317Z,62.92
2023-11-14T13:46:20.657Z,62.42
2023-11-14T13:48:53.455Z,63.09
2023-11-14T13:51:19.912Z,63.30
2023-11-14T13:53:46.296Z,62.75
2023-11-14T13:56:12.822Z,62.73
2023-11-14T13:58:39.289Z,63.51
2023-11-14T14:01:06.232Z,63.14
2023-11-14T14:03:33.116Z,62.76
2023-11-14T14:06:01.026Z,63.53
2023-11-14T14:08:27.788Z,63.37
2023-11-14T14:10:54.142Z,63.83
2023-11-14T14:13:20.544Z,64.26
2023-11-14T14:15:47.191Z,64.20
2023-11-14T14:18:13.868Z,64.25
2023-11-14T14:20:40.569Z,64.48
2023-11-14T14:23:06.950Z,64.37
2023-11-14T14:25:33.798Z,64.34
2023-11-14T14:28:00.178Z,63.97
2023-11-14T14:30:27.804Z,64.35
2023-11-14T14:32:54.182Z,64.44
2023-11-14T14:35:20.847Z,64.40
2023-11-14T14:37:47.216Z,64.70
2023-11-14T14:40:13.818Z,65.17
2023-11-14T14:42:40.171Z,64.89
2023-11-14T14:45:10.849Z,64.77
2023-11-14T14:47:37.936Z,65.43
2023-11-14T14:50:05.740Z,65.48
2023-11-14T14:52:32.822Z,65.92
2023-11-14T14:54:59.428Z,65.81
2023-11-14T14:57:25.761Z,65.51
2023-11-14T14:59:52.120Z,65.99
2023-11-14T15:02:18.534Z,65.98
2023-11-14T15:04:44.892Z,66.55
2023-11-14T15:07:11.638Z,66.55
2023-11-14T15:09:37.970Z,66.64
2023-11-14T15:12:05.236Z,67.47
2023-11-14T15:14:33.073Z,68.06
2023-11-14T15:16:59.720Z,69.00
2023-11-14T15:19:26.068Z,67.86
2023-11-14T15:21:52.422Z,67.35
2023-11-14T15:24:18.783Z,67.91
2023-11-14T15:26:45.106Z,67.92
2023-11-14T15:29:11.461Z,67.29
2023-11-14T15:31:37.831Z,67.85
2023-11-14T15:34:04.292Z,67.53
2023-11-14T15:36:31.661Z,67.60
2023-11-14T15:38:58.593Z,67.76
2023-11-14T15:41:25.514Z,68.54
2023-11-14T15:43:52.012Z,68.86
2023-11-14T15:46:18.461Z,68.78
2023-11-14T15:48:45.116Z,68.95
2023-11-14T15:51:11.458Z,68.33
2023-11-14T15:53:37.806Z,68.87
2023-11-14T15:56:04.664Z,68.95
2023-11-14T15:58:31.409Z,68.98
2023-11-14T16:00:58.169Z,69.24
2023-11-14T16:03:24.922Z,68.62
2023-11-14T16:05:51.415Z,68.70
2023-11-14T16:08:17.858Z,69.07
2023-11-14T16:10:44.227Z,69.48
2023-11-14T16:13:10.763Z,69.07
2023-11-14T16:15:37.108Z,68.89
2023-11-14T16:18:03.600Z,69.75
2023-11-14T16:20:30.038Z,69.39
2023-11-14T16:22:56.438Z,69.79
2023-11-14T16:25:23.171Z,69.08
2023-11-14T16:27:49.605Z,69.06
2023-11-14T16:30:16.065Z,69.64
2023-11-14T16:32:42.487Z,69.28
2023-11-14T16:35:09.140Z,69.26
2023-11-14T16:37:36.414Z,69.36
2023-11-14T16:40:02.815Z,69.78
2023-11-14T16:42:29.211Z,70.69
2023-11-14T16:44:55.693Z,70.79
2023-11-14T16:47:22.069Z,70.73
2023-11-14T16:49:48.450Z,70.92
2023-11-14T16:52:14.789Z,72.88
2023-11-14T16:54:43.999Z,72.70
2023-11-14T16:57:10.655Z,72.98
2023-11-14T16:59:37.022Z,73.82
2023-11-14T17:02:03.430Z,74.13
2023-11-14T17:04:29.841Z,74.70
2023-11-14T17:06:56.496Z,75.48
2023-11-14T17:09:22.882Z,75.30
2023-11-14T17:11:49.300Z,75.88
2023-11-14T17:14:15.670Z,75.98
2023-11-14T17:16:42.075Z,77.19
2023-11-14T17:19:08.431Z,77.28
2023-11-14T17:21:34.815Z,76.82
2023-11-14T17:24:01.439Z,76.26
2023-11-14T17:26:28.064Z,76.24
2023-11-14T17:28:54.462Z,76.30
2023-11-14T17:31:20.789Z,76.99
2023-11-14T17:33:47.089Z,77.54
2023-11-14T17:36:13.505Z,76.91
2023-11-14T17:38:39.941Z,77.79
2023-11-14T17:41:06.714Z,77.89
2023-11-14T17:43:33.083Z,78.25
2023-11-14T17:45:59.546Z,79.51
2023-11-14T17:48:26.043Z,80.34
2023-11-14T17:50:52.541Z,80.65
2023-11-14T17:53:19.051Z,81.52
2023-11-14T17:55:45.554Z,82.59
2023-11-14T17:58:11.976Z,82.24
2023-11-14T18:00:38.510Z,83.30
2023-11-14T18:03:05.114Z,82.83
2023-11-14T18:05:31.996Z,83.33
2023-11-14T18:07:58.488Z,85.28
2023-11-14T18:10:24.820Z,83.94
2023-11-14T18:12:51.348Z,86.30
2023-11-14T18:15:18.618Z,86.55
2023-11-14T18:17:45.323Z,86.30
2023-11-14T18:20:12.516Z,87.30
2023-11-14T18:22:39.031Z,87.10
2023-11-14T18:25:05.581Z,87.96
2023-11-14T18:27:31.920Z,87.47
2023-11-14T18:29:58.429Z,88.12
2023-11-14T18:32:24.864Z,88.72
2023-11-14T18:34:52.824Z,88.23
2023-11-14T18:37:19.160Z,87.79
2023-11-14T18:39:45.731Z,88.92
2023-11-14T18:42:12.075Z,87.70
2023-11-14T18:44:38.648Z,88.65
2023-11-14T18:47:07.825Z,88.64
2023-11-14T18:49:34.535Z,88.67
2023-11-14T18:52:00.928Z,89.88
2023-11-14T18:54:27.730Z,89.08
2023-11-14T18:56:54.116Z,88.58
2023-11-14T18:59:20.579Z,88.79
2023-11-14T19:01:47.013Z,88.43
2023-11-14T19:04:14.882Z,89.25
2023-11-14T19:06:41.335Z,88.72
2023-11-14T19:09:07.699Z,88.60
2023-11-14T19:11:34.119Z,88.02
2023-11-14T19:14:03.999Z,88.79
2023-11-14T19:16:31.188Z,88.15
2023-11-14T19:18:57.701Z,88.89
2023-11-14T19:21:43.772Z,89.68
2023-11-14T19:24:11.530Z,89.10
2023-11-14T19:26:38.269Z,89.76
2023-11-14T19:29:04.962Z,88.73
2023-11-14T19:31:31.687Z,89.73
2023-11-14T19:33:58.038Z,88.66
2023-11-14T19:36:24.398Z,88.64
2023-11-14T19:38:51.049Z,89.14
2023-11-14T19:41:17.576Z,88.29
2023-11-14T19:43:45.018Z,90.31
2023-11-14T19:46:12.440Z,89.06
2023-11-14T19:48:39.231Z,88.48
2023-11-14T19:51:05.686Z,89.17
2023-11-14T19:53:34.042Z,88.83
2023-11-14T19:56:00.663Z,87.68
2023-11-14T19:58:27.007Z,88.83
2023-11-14T20:00:53.471Z,87.45
2023-11-14T20:03:20.171Z,87.47
2023-11-14T20:05:46.682Z,87.62
2023-11-14T20:08:14.238Z,87.61
2023-11-14T20:10:40.530Z,88.53
2023-11-14T20:13:06.906Z,87.54
2023-11-14T20:15:33.322Z,86.51
2023-11-14T20:17:59.860Z,88.37
2023-11-14T20:20:26.274Z,88.11
2023-11-14T20:22:53.053Z,89.38
2023-11-14T20:25:19.872Z,89.55
2023-11-14T20:27:46.922Z,89.12
2023-11-14T20:30:13.634Z,89.95
2023-11-14T20:32:40.053Z,89.38
2023-11-14T20:35:06.727Z,90.57
2023-11-14T20:37:33.559Z,88.99
2023-11-14T20:40:00.308Z,89.39
2023-11-14T20:42:26.684Z,89.34
2023-11-14T20:44:53.105Z,89.15
2023-11-14T20:47:19.498Z,89.23
2023-11-14T20:49:45.917Z,90.75
2023-11-14T20:52:12.276Z,91.47
2023-11-14T20:54:38.634Z,91.64
2023-11-14T20:57:05.355Z,90.70
2023-11-14T20:59:32.094Z,91.97
2023-11-14T21:01:58.488Z,91.02
2023-11-14T21:04:25.186Z,91.76
2023-11-14T21:06:51.748Z,91.13
2023-11-14T21:09:18.712Z,91.96
2023-11-14T21:11:46.466Z,91.54
2023-11-14T21:14:13.300Z,92.26
2023-11-14T21:16:39.852Z,92.31
2023-11-14T21:19:06.280Z,91.44
2023-11-14T21:21:32.699Z,92.20
2023-11-14T21:23:59.204Z,91.67
2023-11-14T21:26:26.083Z,91.66
2023-11-14T21:28:52.509Z,92.09
2023-11-14T21:31:18.933Z,92.10
2023-11-14T21:33:45.318Z,91.58
2023-11-14T21:36:12.138Z,91.09
2023-11-14T21:38:39.052Z,91.01
2023-11-14T21:41:05.684Z,90.74
2023-11-14T21:43:32.126Z,90.25
2023-11-14T21:45:58.958Z,90.32
2023-11-14T21:48:25.454Z,89.94
2023-11-14T21:50:51.936Z,89.20
2023-11-14T21:53:18.380Z,88.75
2023-11-14T21:55:44.873Z,89.05
2023-11-14T21:58:11.800Z,89.12
2023-11-14T22:00:38.215Z,87.30
2023-11-14T22:03:04.736Z,87.03
2023-11-14T22:05:31.668Z,87.31
2023-11-14T22:07:58.008Z,86.80
2023-11-14T22:10:24.382Z,86.88
2023-11-14T22:12:50.813Z,86.05
2023-11-14T22:15:17.149Z,85.91
2023-11-14T22:17:43.601Z,85.20
2023-11-14T22:20:10.324Z,84.96
2023-11-14T22:22:36.783Z,84.97
2023-11-14T22:25:03.226Z,83.58
2023-11-14T22:27:29.655Z,81.87
2023-11-14T22:29:56.022Z,81.63
2023-11-14T22:32:22.709Z,81.07
2023-11-14T22:34:49.055Z,80.68
2023-11-14T22:37:15.403Z,79.72
2023-11-14T22:39:41.731Z,80.88
2023-11-14T22:42:08.074Z,81.28
2023-11-14T22:44:34.491Z,80.90
2023-11-14T22:47:00.899Z,80.33
2023-11-14T22:49:27.316Z,80.53
2023-11-14T22:51:53.945Z,80.48
2023-11-14T22:54:20.349Z,80.34
2023-11-14T22:56:46.828Z,79.73
2023-11-14T22:59:13.198Z,79.94
2023-11-14T23:01:39.627Z,79.79
2023-11-14T23:04:07.113Z,78.26
2023-11-14T23:06:33.420Z,78.34
2023-11-14T23:08:59.782Z,76.95
2023-11-14T23:11:26.205Z,77.26
2023-11-14T23:13:53.924Z,75.69
2023-11-14T23:16:20.454Z,74.54
2023-11-14T23:18:47.026Z,76.21
2023-11-14T23:21:13.382Z,75.30
2023-11-14T23:23:39.842Z,75.58
2023-11-14T23:26:06.259Z,74.03
2023-11-14T23:28:32.890Z,73.74
2023-11-14T23:30:59.331Z,73.69
2023-11-14T23:33:25.774Z,73.19
2023-11-14T23:35:52.128Z,74.04
2023-11-14T23:38:19.595Z,73.33
2023-11-14T23:40:46.010Z,72.68
2023-11-14T23:43:12.677Z,73.01
2023-11-14T23:45:39.173Z,73.21
2023-11-14T23:48:05.814Z,72.86
2023-11-14T23:50:32.366Z,74.36
2023-11-14T23:52:58.915Z,73.83
2023-11-14T23:55:25.781Z,74.40
2023-11-14T23:57:52.179Z,73.13
